sensor_id;sensor_type;location;lat;lon;timestamp;pressure;altitude;pressure_sealevel;temperature;humidity
76694;BME280;65625;52.136;5.424;2023-03-04T00:02:19;102770.63;;;5.65;74.96
76694;BME280;65625;52.136;5.424;2023-03-04T00:04:46;102767.00;;;5.66;75.46
76694;BME280;65625;52.136;5.424;2023-03-04T00:07:12;102767.03;;;5.65;75.06
76694;BME280;65625;52.136;5.424;2023-03-04T00:09:43;102772.38;;;5.66;75.34
76694;BME280;65625;52.136;5.424;2023-03-04T00:12:10;102780.44;;;5.65;75.31
76694;BME280;65625;52.136;5.424;2023-03-04T00:14:37;102771.50;;;5.66;75.36
76694;BME280;65625;52.136;5.424;2023-03-04T00:17:04;102771.47;;;5.67;75.54
76694;BME280;65625;52.136;5.424;2023-03-04T00:19:30;102769.63;;;5.68;75.37
76694;BME280;65625;52.136;5.424;2023-03-04T00:21:57;102775.09;;;5.65;75.25
76694;BME280;65625;52.136;5.424;2023-03-04T00:24:23;102769.75;;;5.63;75.46
76694;BME280;65625;52.136;5.424;2023-03-04T00:26:50;102770.66;;;5.64;75.89
76694;BME280;65625;52.136;5.424;2023-03-04T00:29:16;102767.94;;;5.65;75.82
76694;BME280;65625;52.136;5.424;2023-03-04T00:31:43;102775.09;;;5.65;75.97
76694;BME280;65625;52.136;5.424;2023-03-04T00:34:09;102772.44;;;5.63;75.71
76694;BME280;65625;52.136;5.424;2023-03-04T00:36:36;102770.69;;;5.62;75.70
76694;BME280;65625;52.136;5.424;2023-03-04T00:39:02;102777.81;;;5.63;75.51
76694;BME280;65625;52.136;5.424;2023-03-04T00:41:29;102775.13;;;5.63;75.53
76694;BME280;65625;52.136;5.424;2023-03-04T00:43:56;102781.31;;;5.65;75.56
76694;BME280;65625;52.136;5.424;2023-03-04T00:46:22;102773.28;;;5.65;75.43
76694;BME280;65625;52.136;5.424;2023-03-04T00:48:50;102773.34;;;5.64;75.72
76694;BME280;65625;52.136;5.424;2023-03-04T00:51:16;102773.34;;;5.64;76.14
76694;BME280;65625;52.136;5.424;2023-03-04T00:53:43;102768.00;;;5.62;76.68
76694;BME280;65625;52.136;5.424;2023-03-04T00:56:09;102771.59;;;5.61;76.85
76694;BME280;65625;52.136;5.424;2023-03-04T00:58:36;102772.53;;;5.60;76.38
76694;BME280;65625;52.136;5.424;2023-03-04T01:01:03;102776.09;;;5.61;76.36
76694;BME280;65625;52.136;5.424;2023-03-04T01:03:29;102773.41;;;5.61;76.27
76694;BME280;65625;52.136;5.424;2023-03-04T01:05:58;102774.31;;;5.60;75.83
76694;BME280;65625;52.136;5.424;2023-03-04T01:08:25;102773.41;;;5.61;76.03
76694;BME280;65625;52.136;5.424;2023-03-04T01:10:52;102769.94;;;5.57;76.57
76694;BME280;65625;52.136;5.424;2023-03-04T01:13:18;102777.91;;;5.59;75.74
76694;BME280;65625;52.136;5.424;2023-03-04T01:15:45;102777.00;;;5.60;76.69
76694;BME280;65625;52.136;5.424;2023-03-04T01:18:11;102767.22;;;5.59;76.50
76694;BME280;65625;52.136;5.424;2023-03-04T01:20:39;102773.47;;;5.58;76.32
76694;BME280;65625;52.136;5.424;2023-03-04T01:23:06;102769.00;;;5.58;76.54
76694;BME280;65625;52.136;5.424;2023-03-04T01:25:32;102766.31;;;5.58;76.97
76694;BME280;65625;52.136;5.424;2023-03-04T01:27:58;102760.91;;;5.60;76.68
76694;BME280;65625;52.136;5.424;2023-03-04T01:30:25;102754.66;;;5.59;76.78
76694;BME280;65625;52.136;5.424;2023-03-04T01:32:53;102759.16;;;5.59;77.17
76694;BME280;65625;52.136;5.424;2023-03-04T01:35:19;102749.31;;;5.59;77.03
76694;BME280;65625;52.136;5.424;2023-03-04T01:37:46;102745.78;;;5.59;77.25
76694;BME280;65625;52.136;5.424;2023-03-04T01:40:13;102747.59;;;5.57;77.44
76694;BME280;65625;52.136;5.424;2023-03-04T01:42:40;102748.50;;;5.57;76.82
76694;BME280;65625;52.136;5.424;2023-03-04T01:45:09;102749.41;;;5.56;76.76
76694;BME280;65625;52.136;5.424;2023-03-04T01:47:37;102741.34;;;5.56;77.30
76694;BME280;65625;52.136;5.424;2023-03-04T01:50:10;102751.19;;;5.57;77.06
76694;BME280;65625;52.136;5.424;2023-03-04T01:52:41;102737.78;;;5.57;76.73
76694;BME280;65625;52.136;5.424;2023-03-04T01:55:14;102737.81;;;5.56;76.47
76694;BME280;65625;52.136;5.424;2023-03-04T01:57:41;102730.66;;;5.56;76.03
76694;BME280;65625;52.136;5.424;2023-03-04T02:00:24;102730.69;;;5.55;76.74
76694;BME280;65625;52.136;5.424;2023-03-04T02:02:54;102723.59;;;5.54;77.02
76694;BME280;65625;52.136;5.424;2023-03-04T02:05:23;102722.69;;;5.53;76.78
76694;BME280;65625;52.136;5.424;2023-03-04T02:07:52;102720.94;;;5.52;75.83
76694;BME280;65625;52.136;5.424;2023-03-04T02:10:19;102706.72;;;5.50;75.43
76694;BME280;65625;52.136;5.424;2023-03-04T02:12:45;102721.88;;;5.50;74.59
76694;BME280;65625;52.136;5.424;2023-03-04T02:15:12;102717.41;;;5.50;75.15
76694;BME280;65625;52.136;5.424;2023-03-04T02:17:39;102707.59;;;5.49;74.87
76694;BME280;65625;52.136;5.424;2023-03-04T02:20:14;102704.94;;;5.49;75.13
76694;BME280;65625;52.136;5.424;2023-03-04T02:23:00;102697.88;;;5.47;75.11
76694;BME280;65625;52.136;5.424;2023-03-04T02:25:32;102707.59;;;5.49;75.53
76694;BME280;65625;52.136;5.424;2023-03-04T02:28:01;102698.75;;;5.47;75.50
76694;BME280;65625;52.136;5.424;2023-03-04T02:30:28;102700.53;;;5.47;75.08
76694;BME280;65625;52.136;5.424;2023-03-04T02:32:55;102696.94;;;5.48;74.89
76694;BME280;65625;52.136;5.424;2023-03-04T02:35:22;102696.94;;;5.48;75.34
76694;BME280;65625;52.136;5.424;2023-03-04T02:37:48;102700.41;;;5.51;74.72
76694;BME280;65625;52.136;5.424;2023-03-04T02:40:27;102696.00;;;5.50;75.54
76694;BME280;65625;52.136;5.424;2023-03-04T02:42:57;102686.19;;;5.51;75.41
76694;BME280;65625;52.136;5.424;2023-03-04T02:45:34;102688.91;;;5.48;75.69
76694;BME280;65625;52.136;5.424;2023-03-04T02:48:04;102688.00;;;5.49;75.20
76694;BME280;65625;52.136;5.424;2023-03-04T02:50:35;102681.84;;;5.45;75.61
76694;BME280;65625;52.136;5.424;2023-03-04T02:53:03;102678.28;;;5.45;75.46
76694;BME280;65625;52.136;5.424;2023-03-04T02:55:30;102685.41;;;5.44;74.89
76694;BME280;65625;52.136;5.424;2023-03-04T02:57:58;102693.50;;;5.43;75.56
76694;BME280;65625;52.136;5.424;2023-03-04T03:00:25;102687.28;;;5.42;75.20
76694;BME280;65625;52.136;5.424;2023-03-04T03:02:52;102677.53;;;5.38;74.91
76694;BME280;65625;52.136;5.424;2023-03-04T03:05:19;102682.06;;;5.36;74.80
76694;BME280;65625;52.136;5.424;2023-03-04T03:07:45;102676.69;;;5.36;75.03
76694;BME280;65625;52.136;5.424;2023-03-04T03:10:13;102675.88;;;5.33;75.33
76694;BME280;65625;52.136;5.424;2023-03-04T03:12:40;102662.50;;;5.33;74.40
76694;BME280;65625;52.136;5.424;2023-03-04T03:15:07;102668.75;;;5.33;74.71
76694;BME280;65625;52.136;5.424;2023-03-04T03:17:34;102663.41;;;5.33;74.44
76694;BME280;65625;52.136;5.424;2023-03-04T03:20:00;102660.69;;;5.35;74.33
76694;BME280;65625;52.136;5.424;2023-03-04T03:22:27;102664.25;;;5.35;75.00
76694;BME280;65625;52.136;5.424;2023-03-04T03:24:53;102658.94;;;5.34;74.52
76694;BME280;65625;52.136;5.424;2023-03-04T03:27:20;102664.28;;;5.34;75.11
76694;BME280;65625;52.136;5.424;2023-03-04T03:29:48;102660.75;;;5.32;74.94
76694;BME280;65625;52.136;5.424;2023-03-04T03:32:14;102651.78;;;5.33;75.19
76694;BME280;65625;52.136;5.424;2023-03-04T03:34:41;102650.03;;;5.32;75.04
76694;BME280;65625;52.136;5.424;2023-03-04T03:37:08;102650.03;;;5.32;74.76
76694;BME280;65625;52.136;5.424;2023-03-04T03:39:34;102650.94;;;5.32;74.74
76694;BME280;65625;52.136;5.424;2023-03-04T03:42:01;102650.91;;;5.34;74.67
76694;BME280;65625;52.136;5.424;2023-03-04T03:44:28;102658.94;;;5.34;75.35
76694;BME280;65625;52.136;5.424;2023-03-04T03:46:54;102649.06;;;5.36;74.58
76694;BME280;65625;52.136;5.424;2023-03-04T03:49:21;102653.53;;;5.35;75.66
76694;BME280;65625;52.136;5.424;2023-03-04T03:51:48;102657.09;;;5.34;75.35
76694;BME280;65625;52.136;5.424;2023-03-04T03:54:14;102657.09;;;5.36;75.93
76694;BME280;65625;52.136;5.424;2023-03-04T03:56:41;102654.41;;;5.36;75.67
76694;BME280;65625;52.136;5.424;2023-03-04T03:59:07;102657.91;;;5.38;75.67
76694;BME280;65625;52.136;5.424;2023-03-04T04:01:34;102662.41;;;5.37;75.81
76694;BME280;65625;52.136;5.424;2023-03-04T04:04:00;102656.22;;;5.35;75.77
76694;BME280;65625;52.136;5.424;2023-03-04T04:06:27;102659.78;;;5.36;76.53
76694;BME280;65625;52.136;5.424;2023-03-04T04:08:53;102658.88;;;5.35;76.87
76694;BME280;65625;52.136;5.424;2023-03-04T04:11:20;102661.59;;;5.34;77.16
76694;BME280;65625;52.136;5.424;2023-03-04T04:13:47;102667.84;;;5.33;77.88
76694;BME280;65625;52.136;5.424;2023-03-04T04:16:13;102661.66;;;5.32;77.71
76694;BME280;65625;52.136;5.424;2023-03-04T04:18:40;102660.75;;;5.32;77.85
76694;BME280;65625;52.136;5.424;2023-03-04T04:21:06;102661.69;;;5.29;78.13
76694;BME280;65625;52.136;5.424;2023-03-04T04:23:33;102664.38;;;5.29;78.04
76694;BME280;65625;52.136;5.424;2023-03-04T04:25:59;102661.72;;;5.28;78.06
76694;BME280;65625;52.136;5.424;2023-03-04T04:28:26;102662.63;;;5.28;78.26
76694;BME280;65625;52.136;5.424;2023-03-04T04:30:52;102662.63;;;5.28;77.57
76694;BME280;65625;52.136;5.424;2023-03-04T04:33:19;102658.16;;;5.29;77.69
76694;BME280;65625;52.136;5.424;2023-03-04T04:35:45;102672.41;;;5.29;77.85
76694;BME280;65625;52.136;5.424;2023-03-04T04:38:12;102653.75;;;5.26;77.85
76694;BME280;65625;52.136;5.424;2023-03-04T04:40:38;102668.06;;;5.25;78.04
76694;BME280;65625;52.136;5.424;2023-03-04T04:43:05;102668.09;;;5.24;78.71
76694;BME280;65625;52.136;5.424;2023-03-04T04:45:32;102660.09;;;5.22;78.82
76694;BME280;65625;52.136;5.424;2023-03-04T04:47:59;102669.03;;;5.21;77.56
76694;BME280;65625;52.136;5.424;2023-03-04T04:50:26;102665.50;;;5.21;76.80
76694;BME280;65625;52.136;5.424;2023-03-04T04:52:52;102669.00;;;5.22;77.04
76694;BME280;65625;52.136;5.424;2023-03-04T04:55:19;102669.00;;;5.22;76.41
76694;BME280;65625;52.136;5.424;2023-03-04T04:57:45;102674.31;;;5.24;77.13
76694;BME280;65625;52.136;5.424;2023-03-04T05:00:12;102672.56;;;5.23;76.64
76694;BME280;65625;52.136;5.424;2023-03-04T05:02:39;102674.34;;;5.22;77.59
76694;BME280;65625;52.136;5.424;2023-03-04T05:05:06;102662.78;;;5.22;77.04
76694;BME280;65625;52.136;5.424;2023-03-04T05:07:33;102661.84;;;5.23;76.80
76694;BME280;65625;52.136;5.424;2023-03-04T05:09:59;102672.56;;;5.23;77.37
76694;BME280;65625;52.136;5.424;2023-03-04T05:12:26;102657.41;;;5.24;77.73
76694;BME280;65625;52.136;5.424;2023-03-04T05:14:52;102664.53;;;5.23;76.73
76694;BME280;65625;52.136;5.424;2023-03-04T05:17:19;102655.56;;;5.24;76.83
76694;BME280;65625;52.136;5.424;2023-03-04T05:19:46;102664.50;;;5.25;77.02
76694;BME280;65625;52.136;5.424;2023-03-04T05:22:12;102657.41;;;5.24;77.52
76694;BME280;65625;52.136;5.424;2023-03-04T05:24:38;102663.59;;;5.24;77.32
76694;BME280;65625;52.136;5.424;2023-03-04T05:27:05;102656.50;;;5.23;77.81
76694;BME280;65625;52.136;5.424;2023-03-04T05:29:31;102659.19;;;5.23;77.69
76694;BME280;65625;52.136;5.424;2023-03-04T05:31:58;102669.88;;;5.23;77.64
76694;BME280;65625;52.136;5.424;2023-03-04T05:34:25;102658.28;;;5.22;78.21
76694;BME280;65625;52.136;5.424;2023-03-04T05:36:51;102665.47;;;5.22;77.61
76694;BME280;65625;52.136;5.424;2023-03-04T05:39:18;102665.50;;;5.21;78.60
76694;BME280;65625;52.136;5.424;2023-03-04T05:41:44;102671.72;;;5.21;78.14
76694;BME280;65625;52.136;5.424;2023-03-04T05:44:11;102665.50;;;5.21;78.47
76694;BME280;65625;52.136;5.424;2023-03-04T05:46:37;102662.78;;;5.22;78.62
76694;BME280;65625;52.136;5.424;2023-03-04T05:49:04;102668.19;;;5.21;78.42
76694;BME280;65625;52.136;5.424;2023-03-04T05:51:30;102668.19;;;5.21;79.29
76694;BME280;65625;52.136;5.424;2023-03-04T05:53:57;102673.50;;;5.22;79.40
76694;BME280;65625;52.136;5.424;2023-03-04T05:56:23;102668.19;;;5.21;79.52
76694;BME280;65625;52.136;5.424;2023-03-04T05:58:50;102663.75;;;5.18;79.37
76694;BME280;65625;52.136;5.424;2023-03-04T06:01:16;102656.63;;;5.18;79.69
76694;BME280;65625;52.136;5.424;2023-03-04T06:03:43;102663.81;;;5.16;80.01
76694;BME280;65625;52.136;5.424;2023-03-04T06:06:10;102665.56;;;5.17;79.99
76694;BME280;65625;52.136;5.424;2023-03-04T06:08:36;102665.56;;;5.17;80.03
76694;BME280;65625;52.136;5.424;2023-03-04T06:11:03;102662.91;;;5.16;80.28
76694;BME280;65625;52.136;5.424;2023-03-04T06:13:32;102661.16;;;5.15;80.03
76694;BME280;65625;52.136;5.424;2023-03-04T06:15:59;102661.13;;;5.16;80.65
76694;BME280;65625;52.136;5.424;2023-03-04T06:18:27;102659.34;;;5.17;80.94
76694;BME280;65625;52.136;5.424;2023-03-04T06:20:58;102662.06;;;5.15;81.09
76694;BME280;65625;52.136;5.424;2023-03-04T06:23:26;102662.91;;;5.16;81.16
76694;BME280;65625;52.136;5.424;2023-03-04T06:25:54;102664.72;;;5.15;80.29
76694;BME280;65625;52.136;5.424;2023-03-04T06:28:21;102666.47;;;5.16;81.25
76694;BME280;65625;52.136;5.424;2023-03-04T06:30:51;102669.16;;;5.16;81.36
76694;BME280;65625;52.136;5.424;2023-03-04T06:33:18;102665.59;;;5.16;81.77
76694;BME280;65625;52.136;5.424;2023-03-04T06:35:44;102661.09;;;5.18;81.37
76694;BME280;65625;52.136;5.424;2023-03-04T06:38:11;102667.34;;;5.18;81.06
76694;BME280;65625;52.136;5.424;2023-03-04T06:40:38;102671.72;;;5.21;81.76
76694;BME280;65625;52.136;5.424;2023-03-04T06:43:04;102675.25;;;5.23;81.63
76694;BME280;65625;52.136;5.424;2023-03-04T06:45:31;102669.81;;;5.26;81.75
76694;BME280;65625;52.136;5.424;2023-03-04T06:47:57;102668.94;;;5.26;81.31
76694;BME280;65625;52.136;5.424;2023-03-04T06:50:24;102663.59;;;5.26;81.50
76694;BME280;65625;52.136;5.424;2023-03-04T06:52:50;102674.22;;;5.29;81.73
76694;BME280;65625;52.136;5.424;2023-03-04T06:55:17;102664.38;;;5.29;81.53
76694;BME280;65625;52.136;5.424;2023-03-04T06:57:43;102670.66;;;5.28;81.60
76694;BME280;65625;52.136;5.424;2023-03-04T07:00:13;102676.06;;;5.27;81.65
76694;BME280;65625;52.136;5.424;2023-03-04T07:02:40;102675.94;;;5.31;82.06
76694;BME280;65625;52.136;5.424;2023-03-04T07:05:09;102678.53;;;5.34;81.82
76694;BME280;65625;52.136;5.424;2023-03-04T07:07:36;102681.97;;;5.39;81.77
76694;BME280;65625;52.136;5.424;2023-03-04T07:10:03;102679.19;;;5.44;81.75
76694;BME280;65625;52.136;5.424;2023-03-04T07:12:29;102686.19;;;5.49;81.58
76694;BME280;65625;52.136;5.424;2023-03-04T07:14:56;102680.81;;;5.49;82.16
76694;BME280;65625;52.136;5.424;2023-03-04T07:17:22;102680.88;;;5.48;82.80
76694;BME280;65625;52.136;5.424;2023-03-04T07:19:49;102682.53;;;5.53;83.09
76694;BME280;65625;52.136;5.424;2023-03-04T07:22:15;102680.44;;;5.66;82.86
76694;BME280;65625;52.136;5.424;2023-03-04T07:24:42;102685.28;;;5.85;82.67
76694;BME280;65625;52.136;5.424;2023-03-04T07:27:08;102686.06;;;5.90;82.20
76694;BME280;65625;52.136;5.424;2023-03-04T07:29:35;102684.88;;;6.00;81.90
76694;BME280;65625;52.136;5.424;2023-03-04T07:32:05;102695.63;;;6.32;81.29
76694;BME280;65625;52.136;5.424;2023-03-04T07:34:32;102684.03;;;7.18;79.90
76694;BME280;65625;52.136;5.424;2023-03-04T07:36:59;102681.88;;;7.01;79.07
76694;BME280;65625;52.136;5.424;2023-03-04T07:39:25;102678.50;;;6.95;78.76
76694;BME280;65625;52.136;5.424;2023-03-04T07:41:51;102688.81;;;6.81;78.98
76694;BME280;65625;52.136;5.424;2023-03-04T07:44:18;102694.25;;;6.78;79.54
76694;BME280;65625;52.136;5.424;2023-03-04T07:46:44;102689.19;;;6.96;79.36
76694;BME280;65625;52.136;5.424;2023-03-04T07:49:12;102689.50;;;7.15;79.61
76694;BME280;65625;52.136;5.424;2023-03-04T07:51:39;102681.53;;;7.41;78.89
76694;BME280;65625;52.136;5.424;2023-03-04T07:54:06;102688.00;;;7.60;78.16
76694;BME280;65625;52.136;5.424;2023-03-04T07:56:33;102690.97;;;7.79;77.98
76694;BME280;65625;52.136;5.424;2023-03-04T07:59:00;102684.88;;;7.73;77.46
76694;BME280;65625;52.136;5.424;2023-03-04T08:01:29;102688.63;;;7.68;78.13
76694;BME280;65625;52.136;5.424;2023-03-04T08:03:56;102691.13;;;7.74;77.38
76694;BME280;65625;52.136;5.424;2023-03-04T08:06:23;102698.66;;;7.63;77.26
76694;BME280;65625;52.136;5.424;2023-03-04T08:08:58;102698.66;;;7.63;77.01
76694;BME280;65625;52.136;5.424;2023-03-04T08:11:25;102703.75;;;7.72;77.29
76694;BME280;65625;52.136;5.424;2023-03-04T08:13:52;102702.59;;;7.79;77.06
76694;BME280;65625;52.136;5.424;2023-03-04T08:16:21;102705.59;;;7.70;77.43
76694;BME280;65625;52.136;5.424;2023-03-04T08:18:50;102702.28;;;7.62;77.59
76694;BME280;65625;52.136;5.424;2023-03-04T08:21:18;102708.63;;;7.59;78.13
76694;BME280;65625;52.136;5.424;2023-03-04T08:23:45;102707.22;;;7.48;78.45
76694;BME280;65625;52.136;5.424;2023-03-04T08:26:15;102703.63;;;7.49;79.25
76694;BME280;65625;52.136;5.424;2023-03-04T08:28:43;102708.59;;;7.61;79.08
76694;BME280;65625;52.136;5.424;2023-03-04T08:31:15;102706.34;;;8.00;77.86
76694;BME280;65625;52.136;5.424;2023-03-04T08:33:43;102707.41;;;8.20;77.86
76694;BME280;65625;52.136;5.424;2023-03-04T08:36:10;102711.28;;;7.87;77.61
76694;BME280;65625;52.136;5.424;2023-03-04T08:38:36;102708.78;;;7.81;77.79
76694;BME280;65625;52.136;5.424;2023-03-04T08:41:03;102711.13;;;8.16;77.83
76694;BME280;65625;52.136;5.424;2023-03-04T08:43:30;102710.47;;;8.36;76.48
76694;BME280;65625;52.136;5.424;2023-03-04T08:45:57;102721.69;;;8.22;76.88
76694;BME280;65625;52.136;5.424;2023-03-04T08:48:25;102705.72;;;8.18;77.19
76694;BME280;65625;52.136;5.424;2023-03-04T08:50:51;102708.06;;;8.02;78.24
76694;BME280;65625;52.136;5.424;2023-03-04T08:53:18;102705.44;;;8.01;78.98
76694;BME280;65625;52.136;5.424;2023-03-04T08:55:46;102711.06;;;8.44;78.09
76694;BME280;65625;52.136;5.424;2023-03-04T08:58:12;102714.22;;;8.06;78.26
76694;BME280;65625;52.136;5.424;2023-03-04T09:00:42;102712.88;;;7.93;80.49
76694;BME280;65625;52.136;5.424;2023-03-04T09:03:11;102702.38;;;7.85;80.39
76694;BME280;65625;52.136;5.424;2023-03-04T09:05:38;102704.06;;;8.14;80.46
76694;BME280;65625;52.136;5.424;2023-03-04T09:08:05;102702.16;;;8.42;80.22
76694;BME280;65625;52.136;5.424;2023-03-04T09:10:32;102708.41;;;8.67;79.28
76694;BME280;65625;52.136;5.424;2023-03-04T09:12:58;102701.06;;;10.23;76.42
76694;BME280;65625;52.136;5.424;2023-03-04T09:15:26;102696.66;;;10.98;71.78
76694;BME280;65625;52.136;5.424;2023-03-04T09:17:52;102694.53;;;10.86;72.07
76694;BME280;65625;52.136;5.424;2023-03-04T09:20:19;102694.06;;;10.58;72.19
76694;BME280;65625;52.136;5.424;2023-03-04T09:22:46;102691.66;;;10.32;71.42
76694;BME280;65625;52.136;5.424;2023-03-04T09:25:13;102699.44;;;9.97;73.02
76694;BME280;65625;52.136;5.424;2023-03-04T09:27:40;102695.28;;;9.69;74.01
76694;BME280;65625;52.136;5.424;2023-03-04T09:30:08;102693.00;;;9.80;73.04
76694;BME280;65625;52.136;5.424;2023-03-04T09:32:35;102692.81;;;9.43;74.21
76694;BME280;65625;52.136;5.424;2023-03-04T09:35:02;102707.50;;;9.13;74.44
76694;BME280;65625;52.136;5.424;2023-03-04T09:37:28;102699.84;;;9.02;76.04
76694;BME280;65625;52.136;5.424;2023-03-04T09:39:55;102700.28;;;9.13;76.09
76694;BME280;65625;52.136;5.424;2023-03-04T09:42:30;102679.28;;;9.44;74.93
76694;BME280;65625;52.136;5.424;2023-03-04T09:44:58;102688.09;;;9.48;74.44
76694;BME280;65625;52.136;5.424;2023-03-04T09:47:25;102682.94;;;9.42;74.51
76694;BME280;65625;52.136;5.424;2023-03-04T09:50:02;102687.84;;;9.54;74.85
76694;BME280;65625;52.136;5.424;2023-03-04T09:52:34;102682.84;;;11.22;71.10
76694;BME280;65625;52.136;5.424;2023-03-04T09:57:42;102682.91;;;12.76;67.60
76694;BME280;65625;52.136;5.424;2023-03-04T10:06:01;102663.69;;;11.27;66.41
76694;BME280;65625;52.136;5.424;2023-03-04T10:08:35;102669.41;;;11.02;67.50
76694;BME280;65625;52.136;5.424;2023-03-04T10:11:08;102658.81;;;10.61;67.98
76694;BME280;65625;52.136;5.424;2023-03-04T10:16:20;102673.78;;;10.09;70.83
76694;BME280;65625;52.136;5.424;2023-03-04T10:18:55;102670.69;;;9.56;73.17
76694;BME280;65625;52.136;5.424;2023-03-04T10:21:38;102669.47;;;9.42;74.07
76694;BME280;65625;52.136;5.424;2023-03-04T10:24:12;102663.72;;;9.92;73.52
76694;BME280;65625;52.136;5.424;2023-03-04T10:26:43;102660.88;;;10.36;72.35
76694;BME280;65625;52.136;5.424;2023-03-04T10:29:16;102655.00;;;10.46;71.20
76694;BME280;65625;52.136;5.424;2023-03-04T10:31:44;102659.34;;;10.30;71.24
76694;BME280;65625;52.136;5.424;2023-03-04T10:34:12;102652.03;;;10.32;70.58
76694;BME280;65625;52.136;5.424;2023-03-04T10:41:57;102645.63;;;11.46;66.67
76694;BME280;65625;52.136;5.424;2023-03-04T10:44:25;102652.28;;;10.85;68.53
76694;BME280;65625;52.136;5.424;2023-03-04T10:46:54;102648.38;;;10.33;69.68
76694;BME280;65625;52.136;5.424;2023-03-04T10:49:21;102659.59;;;10.04;70.10
76694;BME280;65625;52.136;5.424;2023-03-04T10:54:32;102641.94;;;13.29;62.62
76694;BME280;65625;52.136;5.424;2023-03-04T10:57:02;102642.97;;;12.14;64.24
76694;BME280;65625;52.136;5.424;2023-03-04T10:59:39;102640.06;;;11.49;64.60
76694;BME280;65625;52.136;5.424;2023-03-04T11:05:21;102654.06;;;10.27;69.28
76694;BME280;65625;52.136;5.424;2023-03-04T11:07:55;102647.06;;;9.83;71.45
76694;BME280;65625;52.136;5.424;2023-03-04T11:13:22;102657.25;;;9.33;74.49
76694;BME280;65625;52.136;5.424;2023-03-04T11:15:56;102650.19;;;9.09;76.17
76694;BME280;65625;52.136;5.424;2023-03-04T11:18:40;102649.97;;;8.92;78.28
76694;BME280;65625;52.136;5.424;2023-03-04T11:21:19;102651.69;;;8.94;79.12
76694;BME280;65625;52.136;5.424;2023-03-04T11:24:48;102642.44;;;8.78;80.50
76694;BME280;65625;52.136;5.424;2023-03-04T11:27:14;102657.72;;;8.55;81.79
76694;BME280;65625;52.136;5.424;2023-03-04T11:29:48;102663.38;;;8.24;81.99
76694;BME280;65625;52.136;5.424;2023-03-04T11:32:26;102662.69;;;8.18;83.02
76694;BME280;65625;52.136;5.424;2023-03-04T11:35:07;102653.66;;;8.19;83.74
76694;BME280;65625;52.136;5.424;2023-03-04T11:37:56;102655.47;;;8.43;84.06
76694;BME280;65625;52.136;5.424;2023-03-04T11:40:39;102650.19;;;8.64;83.37
76694;BME280;65625;52.136;5.424;2023-03-04T11:43:18;102636.69;;;9.52;81.58
76694;BME280;65625;52.136;5.424;2023-03-04T11:48:51;102632.06;;;10.75;78.83
76694;BME280;65625;52.136;5.424;2023-03-04T11:56:30;102614.28;;;11.42;73.51
76694;BME280;65625;52.136;5.424;2023-03-04T12:02:11;102607.25;;;12.23;72.55
76694;BME280;65625;52.136;5.424;2023-03-04T12:05:13;102607.13;;;12.26;70.95
76694;BME280;65625;52.136;5.424;2023-03-04T12:08:25;102603.13;;;11.31;71.79
76694;BME280;65625;52.136;5.424;2023-03-04T12:10:55;102599.09;;;10.85;72.64
76694;BME280;65625;52.136;5.424;2023-03-04T12:13:47;102596.06;;;10.56;72.07
76694;BME280;65625;52.136;5.424;2023-03-04T12:19:39;102614.75;;;9.61;73.53
76694;BME280;65625;52.136;5.424;2023-03-04T12:22:29;102610.69;;;9.30;73.60
76694;BME280;65625;52.136;5.424;2023-03-04T12:25:06;102613.09;;;9.16;74.89
76694;BME280;65625;52.136;5.424;2023-03-04T12:27:41;102612.28;;;9.14;74.31
76694;BME280;65625;52.136;5.424;2023-03-04T12:36:03;102597.28;;;9.70;73.22
76694;BME280;65625;52.136;5.424;2023-03-04T12:38:56;102599.28;;;10.05;72.73
76694;BME280;65625;52.136;5.424;2023-03-04T12:44:19;102593.56;;;10.51;69.72
76694;BME280;65625;52.136;5.424;2023-03-04T12:52:20;102582.97;;;10.65;68.80
76694;BME280;65625;52.136;5.424;2023-03-04T12:54:51;102585.25;;;10.56;67.79
76694;BME280;65625;52.136;5.424;2023-03-04T12:57:26;102574.22;;;10.60;68.82
76694;BME280;65625;52.136;5.424;2023-03-04T13:05:40;102572.53;;;10.00;68.85
76694;BME280;65625;52.136;5.424;2023-03-04T13:08:25;102573.34;;;9.62;69.36
76694;BME280;65625;52.136;5.424;2023-03-04T13:11:00;102575.13;;;9.22;70.38
76694;BME280;65625;52.136;5.424;2023-03-04T13:13:41;102577.59;;;9.06;72.43
76694;BME280;65625;52.136;5.424;2023-03-04T13:18:37;102571.38;;;8.82;73.17
76694;BME280;65625;52.136;5.424;2023-03-04T13:23:39;102570.91;;;8.71;74.13
76694;BME280;65625;52.136;5.424;2023-03-04T13:26:17;102578.31;;;8.88;74.49
76694;BME280;65625;52.136;5.424;2023-03-04T13:29:08;102574.00;;;8.84;74.16
76694;BME280;65625;52.136;5.424;2023-03-04T13:34:47;102562.00;;;8.71;75.12
76694;BME280;65625;52.136;5.424;2023-03-04T13:37:30;102564.13;;;8.84;74.90
76694;BME280;65625;52.136;5.424;2023-03-04T13:42:46;102564.00;;;9.09;73.51
76694;BME280;65625;52.136;5.424;2023-03-04T13:45:34;102556.19;;;9.23;73.08
76694;BME280;65625;52.136;5.424;2023-03-04T13:48:02;102565.31;;;9.41;72.09
76694;BME280;65625;52.136;5.424;2023-03-04T13:50:37;102557.97;;;9.44;70.64
76694;BME280;65625;52.136;5.424;2023-03-04T13:53:25;102558.00;;;9.64;71.04
76694;BME280;65625;52.136;5.424;2023-03-04T13:56:03;102555.47;;;9.60;69.52
76694;BME280;65625;52.136;5.424;2023-03-04T13:58:30;102545.34;;;9.25;70.26
76694;BME280;65625;52.136;5.424;2023-03-04T14:00:56;102548.66;;;9.11;71.81
76694;BME280;65625;52.136;5.424;2023-03-04T14:03:28;102549.03;;;9.02;72.02
76694;BME280;65625;52.136;5.424;2023-03-04T14:06:30;102546.69;;;8.93;70.40
76694;BME280;65625;52.136;5.424;2023-03-04T14:08:57;102541.94;;;8.78;68.72
76694;BME280;65625;52.136;5.424;2023-03-04T14:13:51;102533.28;;;8.91;69.21
76694;BME280;65625;52.136;5.424;2023-03-04T14:16:24;102535.31;;;8.86;67.22
76694;BME280;65625;52.136;5.424;2023-03-04T14:19:00;102542.94;;;8.75;66.76
76694;BME280;65625;52.136;5.424;2023-03-04T14:21:29;102541.63;;;8.64;67.03
76694;BME280;65625;52.136;5.424;2023-03-04T14:24:10;102537.78;;;8.48;67.59
76694;BME280;65625;52.136;5.424;2023-03-04T14:26:37;102533.34;;;8.47;68.07